Time;durP1;ratioP1;P1;durP2;ratioP2;P2;SDS_P1;SDS_P2;PMS_P1;PMS_P2;Temp;Humidity;BMP_temperature;BMP_pressure;BME280_temperature;BME280_humidity;BME280_pressure;Samples;Min_cycle;Max_cycle;Signal;HPM_P1;HPM_P2
2024/02/29 00:04:06;;;;;;;48.33;26.48;;;;;;;-146.18;100.00;67994.34;10354737;27;20048;-71
2024/02/29 00:09:02;;;;;;;44.40;25.05;;;;;;;-146.18;100.00;67994.34;10352733;27;20045;-70
2024/02/29 00:13:59;;;;;;;44.38;24.88;;;;;;;-146.18;100.00;67994.34;10351402;28;20060;-72
2024/02/29 00:18:55;;;;;;;45.03;24.83;;;;;;;-146.18;100.00;67994.34;10351859;27;20500;-72
2024/02/29 00:23:52;;;;;;;52.50;25.45;;;;;;;-146.18;100.00;67994.34;10344780;27;20334;-72
2024/02/29 00:28:48;;;;;;;48.58;25.35;;;;;;;-146.18;100.00;67994.34;10354702;27;20070;-70
2024/02/29 00:33:45;;;;;;;47.95;25.77;;;;;;;-146.18;100.00;67994.34;10352245;27;20047;-71
2024/02/29 00:38:41;;;;;;;51.97;25.63;;;;;;;-146.18;100.00;67994.34;10344564;28;20054;-73
2024/02/29 00:43:38;;;;;;;47.80;26.33;;;;;;;-146.18;100.00;67994.34;10347641;27;20044;-72
2024/02/29 00:48:38;;;;;;;47.65;26.05;;;;;;;-146.18;100.00;67994.34;10350139;27;20048;-72
2024/02/29 00:53:34;;;;;;;44.97;25.17;;;;;;;-146.18;100.00;67994.34;10335573;27;20044;-73
2024/02/29 00:58:31;;;;;;;46.10;25.77;;;;;;;-146.18;100.00;67994.34;10342500;27;20080;-73
2024/02/29 01:03:27;;;;;;;50.75;26.17;;;;;;;-146.18;100.00;67994.34;10354157;27;20480;-71
2024/02/29 01:08:25;;;;;;;47.90;27.27;;;;;;;-146.18;100.00;67994.34;10350351;27;20102;-71
2024/02/29 01:13:22;;;;;;;49.85;27.02;;;;;;;-146.18;100.00;67994.34;10355676;27;20044;-71
2024/02/29 01:18:18;;;;;;;53.22;28.08;;;;;;;-146.18;100.00;67994.34;10359560;27;20051;-70
2024/02/29 01:23:15;;;;;;;45.38;26.70;;;;;;;-146.18;100.00;67994.34;10353643;27;20048;-71
2024/02/29 01:28:11;;;;;;;46.28;27.60;;;;;;;-146.18;100.00;67994.34;10350515;27;20101;-70
2024/02/29 01:33:08;;;;;;;51.08;27.00;;;;;;;-146.18;100.00;67994.34;10350421;27;20040;-70
2024/02/29 01:38:05;;;;;;;47.78;25.13;;;;;;;-146.18;100.00;67994.34;10352064;27;20044;-71
2024/02/29 01:43:02;;;;;;;49.13;26.42;;;;;;;-146.18;100.00;67994.34;10364286;27;20059;-70
2024/02/29 01:47:59;;;;;;;45.00;25.70;;;;;;;-146.18;100.00;67994.34;10344406;27;20047;-74
2024/02/29 01:52:55;;;;;;;50.60;25.00;;;;;;;-146.18;100.00;67994.34;10344271;27;20411;-73
2024/02/29 01:57:52;;;;;;;48.97;26.20;;;;;;;-146.18;100.00;67994.34;10360548;27;20067;-70
2024/02/29 02:02:49;;;;;;;44.47;25.00;;;;;;;-146.18;100.00;67994.34;10353129;27;20522;-73
2024/02/29 02:07:47;;;;;;;46.50;25.08;;;;;;;-146.18;100.00;67994.34;10344557;27;20090;-72
2024/02/29 02:12:45;;;;;;;46.72;23.92;;;;;;;-146.18;100.00;67994.34;10348824;27;20044;-70
2024/02/29 02:17:42;;;;;;;45.63;24.67;;;;;;;-146.18;100.00;67994.34;10354028;27;20052;-71
2024/02/29 02:22:38;;;;;;;46.97;24.13;;;;;;;-146.18;100.00;67994.34;10350202;27;20087;-70
2024/02/29 02:27:38;;;;;;;45.67;24.77;;;;;;;-146.18;100.00;67994.34;10345657;27;20518;-70
2024/02/29 02:32:35;;;;;;;47.60;24.88;;;;;;;-146.18;100.00;67994.34;10345997;27;20044;-70
2024/02/29 02:37:36;;;;;;;41.90;24.60;;;;;;;-146.18;100.00;67994.34;10350930;27;20064;-72
2024/02/29 02:42:33;;;;;;;46.33;24.55;;;;;;;-146.18;100.00;67994.34;10355146;27;20429;-72
2024/02/29 02:47:29;;;;;;;43.03;25.85;;;;;;;-146.18;100.00;67994.34;10348583;27;20044;-71
2024/02/29 02:52:26;;;;;;;48.40;25.83;;;;;;;-146.18;100.00;67994.34;10353850;27;20032;-73
2024/02/29 02:57:22;;;;;;;48.25;25.55;;;;;;;-146.18;100.00;67994.34;10350659;27;20045;-71
2024/02/29 03:02:19;;;;;;;47.28;24.63;;;;;;;-146.18;100.00;67994.34;10351968;27;20488;-70
2024/02/29 03:07:15;;;;;;;46.25;24.23;;;;;;;-146.18;100.00;67994.34;10343509;27;20059;-72
2024/02/29 03:12:12;;;;;;;43.92;24.08;;;;;;;-146.18;100.00;67994.34;10352193;27;20044;-71
2024/02/29 03:17:09;;;;;;;51.60;25.00;;;;;;;-146.18;100.00;67994.34;10349362;27;20486;-70
2024/02/29 03:22:06;;;;;;;45.75;25.13;;;;;;;-146.18;100.00;67994.34;10351463;27;20541;-70
2024/02/29 03:27:02;;;;;;;42.78;25.30;;;;;;;-146.18;100.00;67994.34;10358664;28;20156;-72
2024/02/29 03:31:59;;;;;;;49.30;25.45;;;;;;;-146.18;100.00;67994.34;10340897;27;20093;-71
2024/02/29 03:36:55;;;;;;;45.83;26.00;;;;;;;-146.18;100.00;67994.34;10353265;27;20044;-71
2024/02/29 03:41:52;;;;;;;46.33;25.45;;;;;;;-146.18;100.00;67994.34;10356083;27;20048;-72
2024/02/29 03:46:48;;;;;;;43.80;25.77;;;;;;;-146.18;100.00;67994.34;10350759;27;20535;-70
2024/02/29 03:51:45;;;;;;;44.63;25.77;;;;;;;-146.18;100.00;67994.34;10349035;28;20056;-72
2024/02/29 03:56:42;;;;;;;50.50;28.48;;;;;;;-146.18;100.00;67994.34;10350127;27;20043;-72
2024/02/29 04:01:38;;;;;;;46.92;25.75;;;;;;;-146.18;100.00;67994.34;10342744;27;20048;-71
2024/02/29 04:06:35;;;;;;;50.17;26.48;;;;;;;-146.18;100.00;67994.34;10354852;27;20048;-72
2024/02/29 04:11:31;;;;;;;51.55;25.27;;;;;;;-146.18;100.00;67994.34;10349150;27;20460;-71
2024/02/29 04:16:28;;;;;;;47.03;25.63;;;;;;;-146.18;100.00;67994.34;10350184;27;20071;-69
2024/02/29 04:21:24;;;;;;;45.03;25.20;;;;;;;-146.18;100.00;67994.34;10337756;27;20040;-70
2024/02/29 04:26:23;;;;;;;45.47;25.60;;;;;;;-146.18;100.00;67994.34;10362934;27;20048;-70
2024/02/29 04:31:21;;;;;;;46.63;26.52;;;;;;;-146.18;100.00;67994.34;10345857;27;20044;-71
2024/02/29 04:36:17;;;;;;;48.85;27.08;;;;;;;-146.18;100.00;67994.34;10335584;27;20078;-73
2024/02/29 04:41:14;;;;;;;55.30;27.83;;;;;;;-146.18;100.00;67994.34;10353088;27;20044;-73
2024/02/29 04:46:10;;;;;;;43.35;26.25;;;;;;;-146.18;100.00;67994.34;10353323;27;20044;-74
2024/02/29 04:51:07;;;;;;;50.28;27.40;;;;;;;-146.18;100.00;67994.34;10355607;27;20040;-73
2024/02/29 04:56:06;;;;;;;45.30;27.73;;;;;;;-146.18;100.00;67994.34;10357680;27;20052;-74
2024/02/29 05:01:04;;;;;;;48.60;27.35;;;;;;;-146.18;100.00;67994.34;10355651;27;20048;-71
2024/02/29 05:06:01;;;;;;;46.55;26.70;;;;;;;-146.18;100.00;67994.34;10351449;28;20510;-70
2024/02/29 05:10:57;;;;;;;45.40;26.98;;;;;;;-146.18;100.00;67994.34;10352243;27;20099;-71
2024/02/29 05:15:54;;;;;;;48.22;28.05;;;;;;;-146.18;100.00;67994.34;10356312;27;20079;-70
2024/02/29 05:20:51;;;;;;;49.30;28.08;;;;;;;-146.18;100.00;67994.34;10355267;27;20154;-70
2024/02/29 05:25:47;;;;;;;43.47;26.63;;;;;;;-146.18;100.00;67994.34;10366519;27;20059;-70
2024/02/29 05:30:44;;;;;;;45.53;27.17;;;;;;;-146.18;100.00;67994.34;10356962;27;20039;-70
2024/02/29 05:35:40;;;;;;;41.88;26.58;;;;;;;-146.18;100.00;67994.34;10354449;27;20062;-70
2024/02/29 05:40:37;;;;;;;46.35;27.00;;;;;;;-146.18;100.00;67994.34;10354197;27;20081;-70
2024/02/29 05:45:33;;;;;;;46.30;27.13;;;;;;;-146.18;100.00;67994.34;10354551;27;20044;-70
2024/02/29 05:50:30;;;;;;;47.85;27.27;;;;;;;-146.18;100.00;67994.34;10355054;27;20040;-70
2024/02/29 05:55:30;;;;;;;45.28;26.08;;;;;;;-146.18;100.00;67994.34;10351571;27;20063;-70
2024/02/29 06:00:26;;;;;;;46.08;26.98;;;;;;;-146.18;100.00;67994.34;10337348;28;20052;-71
2024/02/29 06:05:23;;;;;;;42.03;26.20;;;;;;;-146.18;100.00;67994.34;10350937;27;20435;-70
2024/02/29 06:10:20;;;;;;;49.67;26.02;;;;;;;-146.18;100.00;67994.34;10343092;27;20044;-70
2024/02/29 06:15:18;;;;;;;43.97;27.33;;;;;;;-146.18;100.00;67994.34;10346088;27;20052;-71
2024/02/29 06:20:14;;;;;;;43.28;26.67;;;;;;;-146.18;100.00;67994.34;10352847;27;20047;-71
2024/02/29 06:25:11;;;;;;;46.97;26.83;;;;;;;-146.18;100.00;67994.34;10348855;27;20047;-72
2024/02/29 06:30:08;;;;;;;47.78;26.58;;;;;;;-146.18;100.00;67994.34;10341176;28;20054;-70
2024/02/29 06:35:05;;;;;;;45.63;24.90;;;;;;;-146.18;100.00;67994.34;10347500;27;20075;-72
2024/02/29 06:40:02;;;;;;;39.53;25.83;;;;;;;-146.18;100.00;67994.34;10346727;27;20089;-70
2024/02/29 06:44:59;;;;;;;48.35;26.63;;;;;;;-146.18;100.00;67994.34;10350636;28;20514;-71
2024/02/29 06:49:55;;;;;;;36.05;24.45;;;;;;;-146.18;100.00;67994.34;10344572;27;20036;-70
2024/02/29 06:54:51;;;;;;;35.33;24.05;;;;;;;-146.18;100.00;67994.34;10347250;27;20500;-71
2024/02/29 06:59:48;;;;;;;33.72;23.05;;;;;;;-146.18;100.00;67994.34;10347396;27;20062;-71
2024/02/29 07:04:48;;;;;;;40.42;25.48;;;;;;;-146.18;100.00;67994.34;10346632;27;20469;-71
2024/02/29 07:09:45;;;;;;;33.45;21.83;;;;;;;-146.18;100.00;67994.34;10344297;27;20048;-71
2024/02/29 07:14:42;;;;;;;42.13;23.58;;;;;;;-146.18;100.00;67994.34;10357849;27;20043;-71
2024/02/29 07:19:39;;;;;;;48.53;24.67;;;;;;;-146.18;100.00;67994.34;10346409;27;20403;-72
2024/02/29 07:24:35;;;;;;;38.55;23.25;;;;;;;-146.18;100.00;67994.34;10344199;27;20522;-71
2024/02/29 07:29:32;;;;;;;39.05;22.77;;;;;;;-146.18;100.00;67994.34;10339058;28;20036;-71
2024/02/29 07:34:29;;;;;;;39.22;21.48;;;;;;;-146.18;100.00;67994.34;10348299;28;20525;-71
2024/02/29 07:39:25;;;;;;;36.80;23.23;;;;;;;-146.18;100.00;67994.34;10339911;28;20040;-71
2024/02/29 07:44:22;;;;;;;39.38;21.90;;;;;;;-146.18;100.00;67994.34;10350844;27;20059;-71
2024/02/29 07:49:18;;;;;;;33.42;21.05;;;;;;;-146.18;100.00;67994.34;10344435;27;20480;-73
2024/02/29 07:54:15;;;;;;;35.30;22.20;;;;;;;-146.18;100.00;67994.34;10344678;27;20089;-72
2024/02/29 07:59:12;;;;;;;35.03;21.67;;;;;;;-146.18;100.00;67994.34;10355368;27;20044;-71
2024/02/29 08:04:09;;;;;;;31.92;19.88;;;;;;;-146.18;100.00;67994.34;10343671;27;20040;-71
2024/02/29 08:09:08;;;;;;;29.67;17.45;;;;;;;-146.18;100.00;67994.34;10345063;27;20453;-70
2024/02/29 08:14:06;;;;;;;27.42;17.42;;;;;;;-146.18;100.00;67994.34;10342628;27;20135;-71
2024/02/29 08:19:03;;;;;;;32.75;19.65;;;;;;;-146.18;100.00;67994.34;10349868;27;20060;-71
2024/02/29 08:23:59;;;;;;;30.77;18.20;;;;;;;-146.18;100.00;67994.34;10348474;27;20040;-71
2024/02/29 08:28:56;;;;;;;32.47;18.58;;;;;;;-146.18;100.00;67994.34;10348433;27;20459;-71
2024/02/29 08:33:52;;;;;;;25.13;17.40;;;;;;;-146.18;100.00;67994.34;10361634;27;20051;-70
2024/02/29 08:38:49;;;;;;;25.02;16.77;;;;;;;-146.18;100.00;67994.34;10359840;27;20466;-71
2024/02/29 08:43:46;;;;;;;25.10;17.67;;;;;;;-146.18;100.00;67994.34;10343304;27;20049;-71
2024/02/29 08:48:45;;;;;;;25.83;16.60;;;;;;;-146.18;100.00;67994.34;10360772;28;20078;-71
2024/02/29 08:53:42;;;;;;;24.35;16.05;;;;;;;-146.18;100.00;67994.34;10346857;27;20415;-71
2024/02/29 08:58:39;;;;;;;24.83;15.93;;;;;;;-146.18;100.00;67994.34;10354339;27;20047;-71
2024/02/29 09:03:35;;;;;;;24.10;15.10;;;;;;;-146.18;100.00;67994.34;10345125;27;20064;-70
2024/02/29 09:08:32;;;;;;;21.98;15.68;;;;;;;-146.18;100.00;67994.34;10353213;27;20044;-71
2024/02/29 09:13:28;;;;;;;29.27;16.15;;;;;;;-146.18;100.00;67994.34;10342030;28;20067;-71
2024/02/29 09:18:31;;;;;;;22.33;15.40;;;;;;;-146.18;100.00;67994.34;10347156;27;20137;-71
2024/02/29 09:23:28;;;;;;;24.65;15.50;;;;;;;-146.18;100.00;67994.34;10349448;27;20043;-70
2024/02/29 09:28:25;;;;;;;19.65;14.13;;;;;;;-146.18;100.00;67994.34;10344333;27;20036;-71
2024/02/29 09:33:24;;;;;;;19.90;14.23;;;;;;;-146.18;100.00;67994.34;10351987;27;20044;-71
2024/02/29 09:38:21;;;;;;;22.63;14.95;;;;;;;-146.18;100.00;67994.34;10350327;27;20055;-71
2024/02/29 09:43:17;;;;;;;21.17;14.38;;;;;;;-146.18;100.00;67994.34;10354463;27;20040;-71
2024/02/29 09:48:15;;;;;;;18.45;14.00;;;;;;;-146.18;100.00;67994.34;10358087;27;20152;-76
2024/02/29 09:53:14;;;;;;;22.83;14.00;;;;;;;-146.18;100.00;67994.34;10359110;28;20044;-72
2024/02/29 09:58:17;;;;;;;17.85;12.50;;;;;;;-146.18;100.00;67994.34;10368041;27;20078;-72
2024/02/29 10:03:19;;;;;;;17.98;12.90;;;;;;;-146.18;100.00;67994.34;10357678;27;20047;-73
2024/02/29 10:08:15;;;;;;;20.90;12.43;;;;;;;-146.18;100.00;67994.34;10359431;27;20065;-72
2024/02/29 10:13:12;;;;;;;14.65;11.45;;;;;;;-146.18;100.00;67994.34;10351515;27;20044;-73
2024/02/29 10:18:08;;;;;;;15.90;11.48;;;;;;;-146.18;100.00;67994.34;10340010;27;20075;-72
2024/02/29 10:23:15;;;;;;;13.40;11.45;;;;;;;-146.18;100.00;67994.34;10344033;28;20050;-71
2024/02/29 10:28:15;;;;;;;15.15;11.80;;;;;;;-146.18;100.00;67994.34;10349915;27;20044;-73
2024/02/29 10:33:13;;;;;;;12.55;10.68;;;;;;;-146.18;100.00;67994.34;10348293;27;20049;-73
2024/02/29 10:38:09;;;;;;;13.20;10.63;;;;;;;-146.18;100.00;67994.34;10349801;27;20139;-73
2024/02/29 10:43:11;;;;;;;14.65;10.35;;;;;;;-146.18;100.00;67994.34;10342733;27;20051;-72
2024/02/29 10:48:17;;;;;;;12.35;9.88;;;;;;;-146.18;100.00;67994.34;10348079;27;20048;-73
2024/02/29 10:53:36;;;;;;;12.60;9.38;;;;;;;-146.18;100.00;67994.34;10347336;27;20154;-72
2024/02/29 10:58:39;;;;;;;11.73;9.43;;;;;;;-146.18;100.00;67994.34;10349490;27;20051;-72
2024/02/29 11:03:38;;;;;;;15.20;9.35;;;;;;;-146.18;100.00;67994.34;10344369;27;20044;-72
2024/02/29 11:08:35;;;;;;;10.32;8.77;;;;;;;-146.18;100.00;67994.34;10341731;27;20063;-72
2024/02/29 11:13:31;;;;;;;12.60;8.90;;;;;;;-146.18;100.00;67994.34;10338604;27;20507;-72
2024/02/29 11:18:30;;;;;;;10.68;8.93;;;;;;;-146.18;100.00;67994.34;10345369;27;20054;-72
2024/02/29 11:23:46;;;;;;;12.63;8.60;;;;;;;-146.18;100.00;67994.34;10342443;27;20634;-71
2024/02/29 11:28:42;;;;;;;11.07;9.52;;;;;;;-146.18;100.00;67994.34;10350022;27;20039;-71
2024/02/29 11:33:39;;;;;;;9.65;8.40;;;;;;;-146.18;100.00;67994.34;10338480;27;20512;-71
2024/02/29 11:38:35;;;;;;;10.73;8.80;;;;;;;-146.18;100.00;67994.34;10345578;27;20044;-71
2024/02/29 11:43:36;;;;;;;10.38;8.45;;;;;;;-146.18;100.00;67994.34;10341610;27;20036;-70
2024/02/29 11:48:33;;;;;;;10.27;8.75;;;;;;;-146.18;100.00;67994.34;10336384;28;20388;-71
2024/02/29 11:53:38;;;;;;;11.07;8.35;;;;;;;-146.18;100.00;67994.34;10331857;27;20040;-71
2024/02/29 11:58:35;;;;;;;15.18;9.35;;;;;;;-146.18;100.00;67994.34;10351801;27;20036;-71
2024/02/29 12:03:32;;;;;;;9.48;7.53;;;;;;;-146.18;100.00;67994.34;10356618;27;20048;-71
2024/02/29 12:08:28;;;;;;;9.38;7.50;;;;;;;-146.18;100.00;67994.34;10339444;27;20066;-71
2024/02/29 12:13:26;;;;;;;9.68;8.35;;;;;;;-146.18;100.00;67994.34;10346162;27;20514;-71
2024/02/29 12:18:23;;;;;;;9.32;8.00;;;;;;;-146.18;100.00;67994.34;10348357;27;20055;-71
2024/02/29 12:23:19;;;;;;;8.85;7.70;;;;;;;-146.18;100.00;67994.34;10346799;27;20074;-72
2024/02/29 12:28:16;;;;;;;8.30;7.38;;;;;;;-146.18;100.00;67994.34;10334591;28;20040;-71
2024/02/29 12:33:13;;;;;;;8.32;7.53;;;;;;;-146.18;100.00;67994.34;10337210;28;20040;-71
2024/02/29 12:38:14;;;;;;;10.77;8.02;;;;;;;-146.18;100.00;67994.34;10342773;27;20143;-71
2024/02/29 12:43:17;;;;;;;10.73;7.80;;;;;;;-146.18;100.00;67994.34;10344596;27;20048;-72
2024/02/29 12:48:13;;;;;;;8.57;7.32;;;;;;;-146.18;100.00;67994.34;10340434;27;20044;-71
2024/02/29 12:53:10;;;;;;;8.30;7.50;;;;;;;-146.18;100.00;67994.34;10339154;27;20056;-71
2024/02/29 12:58:11;;;;;;;10.18;9.18;;;;;;;-146.18;100.00;67994.34;10354742;27;20052;-71
2024/02/29 13:03:09;;;;;;;8.63;7.83;;;;;;;-146.18;100.00;67994.34;10350506;27;20074;-72
2024/02/29 13:08:08;;;;;;;9.00;8.10;;;;;;;-146.18;100.00;67994.34;10350083;27;20457;-72
2024/02/29 13:13:07;;;;;;;9.73;8.60;;;;;;;-146.18;100.00;67994.34;10344382;27;20046;-72
2024/02/29 13:18:06;;;;;;;10.13;9.13;;;;;;;-146.18;100.00;67994.34;10355562;27;20055;-71
2024/02/29 13:23:03;;;;;;;9.07;8.18;;;;;;;-146.18;100.00;67994.34;10352822;27;20127;-72
2024/02/29 13:27:59;;;;;;;10.30;9.20;;;;;;;-146.18;100.00;67994.34;10349653;27;20055;-72
2024/02/29 13:32:56;;;;;;;9.23;8.43;;;;;;;-146.18;100.00;67994.34;10358282;27;20553;-72
2024/02/29 13:37:53;;;;;;;9.40;8.50;;;;;;;-146.18;100.00;67994.34;10351789;27;20094;-71
2024/02/29 13:42:49;;;;;;;9.15;8.15;;;;;;;-146.18;100.00;67994.34;10344048;27;20041;-72
2024/02/29 13:47:52;;;;;;;9.70;8.10;;;;;;;-146.18;100.00;67994.34;10360902;27;20043;-72
2024/02/29 13:52:48;;;;;;;9.38;7.78;;;;;;;-146.18;100.00;67994.34;10342108;27;20450;-72
2024/02/29 13:57:45;;;;;;;9.60;8.30;;;;;;;-146.18;100.00;67994.34;10333985;27;20053;-71
2024/02/29 14:02:41;;;;;;;8.52;7.30;;;;;;;-146.18;100.00;67994.34;10333532;27;20499;-70
2024/02/29 14:07:38;;;;;;;8.45;7.53;;;;;;;-146.18;100.00;67994.34;10341512;27;20392;-72
2024/02/29 14:12:35;;;;;;;8.40;7.30;;;;;;;-146.18;100.00;67994.34;10351657;27;20085;-71
2024/02/29 14:17:31;;;;;;;8.70;7.82;;;;;;;-146.18;100.00;67994.34;10342556;27;20125;-72
2024/02/29 14:22:28;;;;;;;9.60;8.05;;;;;;;-146.18;100.00;67994.34;10346956;27;20228;-71
2024/02/29 14:27:25;;;;;;;8.20;7.40;;;;;;;-146.18;100.00;67994.34;10351943;27;20043;-71
2024/02/29 14:32:21;;;;;;;8.52;7.65;;;;;;;-146.18;100.00;67994.34;10352488;27;20056;-72
2024/02/29 14:37:18;;;;;;;8.80;7.90;;;;;;;-146.18;100.00;67994.34;10359111;27;20056;-72
2024/02/29 14:42:14;;;;;;;9.93;8.23;;;;;;;-146.18;100.00;67994.34;10352112;27;20040;-71
2024/02/29 14:47:11;;;;;;;10.68;9.27;;;;;;;-146.18;100.00;67994.34;10350776;27;20459;-71
2024/02/29 14:52:07;;;;;;;9.60;8.43;;;;;;;-146.18;100.00;67994.34;10339168;27;20865;-72
2024/02/29 14:57:04;;;;;;;10.25;8.93;;;;;;;-146.18;100.00;67994.34;10345628;27;20464;-73
2024/02/29 15:02:01;;;;;;;10.63;8.43;;;;;;;-146.18;100.00;67994.34;10343993;27;20900;-72
2024/02/29 15:06:59;;;;;;;9.57;8.35;;;;;;;-146.18;100.00;67994.34;10336576;28;20051;-71
2024/02/29 15:11:55;;;;;;;9.25;8.35;;;;;;;-146.18;100.00;67994.34;10348957;28;20122;-74
2024/02/29 15:16:53;;;;;;;9.15;7.97;;;;;;;-146.18;100.00;67994.34;10360922;27;20868;-71
2024/02/29 15:21:50;;;;;;;13.00;9.43;;;;;;;-146.18;100.00;67994.34;10357247;27;20453;-74
2024/02/29 15:26:47;;;;;;;9.85;7.72;;;;;;;-146.18;100.00;67994.34;10339773;27;20056;-72
2024/02/29 15:31:44;;;;;;;9.05;8.15;;;;;;;-146.18;100.00;67994.34;10342619;27;20044;-72
2024/02/29 15:36:41;;;;;;;9.32;8.35;;;;;;;-146.18;100.00;67994.34;10345321;27;20044;-73
2024/02/29 15:41:37;;;;;;;10.18;9.00;;;;;;;-146.18;100.00;67994.34;10348466;27;20040;-72
2024/02/29 15:46:34;;;;;;;9.63;8.63;;;;;;;-146.18;100.00;67994.34;10343023;27;20052;-72
2024/02/29 15:51:31;;;;;;;9.63;8.43;;;;;;;-146.18;100.00;67994.34;10348551;28;20435;-72
2024/02/29 15:56:28;;;;;;;11.02;8.68;;;;;;;-146.18;100.00;67994.34;10342450;27;20039;-72
2024/02/29 16:01:25;;;;;;;12.93;10.30;;;;;;;-146.18;100.00;67994.34;10342852;27;20048;-70
2024/02/29 16:06:22;;;;;;;12.52;9.23;;;;;;;-146.18;100.00;67994.34;10347281;27;20060;-72
2024/02/29 16:11:21;;;;;;;11.82;8.75;;;;;;;-146.18;100.00;67994.34;10345088;28;20045;-71
2024/02/29 16:16:18;;;;;;;11.93;9.13;;;;;;;-146.18;100.00;67994.34;10339321;27;20048;-72
2024/02/29 16:21:14;;;;;;;13.20;8.80;;;;;;;-146.18;100.00;67994.34;10345177;27;20067;-70
2024/02/29 16:26:11;;;;;;;12.02;9.73;;;;;;;-146.18;100.00;67994.34;10343289;27;20048;-69
2024/02/29 16:31:08;;;;;;;11.65;9.43;;;;;;;-146.18;100.00;67994.34;10354567;27;20093;-71
2024/02/29 16:36:06;;;;;;;11.50;9.68;;;;;;;-146.18;100.00;67994.34;10347544;27;20144;-72
2024/02/29 16:41:02;;;;;;;11.10;9.30;;;;;;;-146.18;100.00;67994.34;10345555;27;20044;-69
2024/02/29 16:45:59;;;;;;;11.43;10.05;;;;;;;-146.18;100.00;67994.34;10354931;27;20181;-70
2024/02/29 16:50:56;;;;;;;12.00;9.63;;;;;;;-146.18;100.00;67994.34;10349360;27;20036;-71
2024/02/29 16:55:52;;;;;;;14.50;10.98;;;;;;;-146.18;100.00;67994.34;10354023;27;20527;-69
2024/02/29 17:00:49;;;;;;;13.68;9.98;;;;;;;-146.18;100.00;67994.34;10347779;28;20052;-69
2024/02/29 17:05:46;;;;;;;16.92;10.70;;;;;;;-146.18;100.00;67994.34;10350402;27;20147;-69
2024/02/29 17:10:42;;;;;;;13.07;11.10;;;;;;;-146.18;100.00;67994.34;10366119;27;20073;-69
2024/02/29 17:15:39;;;;;;;11.68;9.70;;;;;;;-146.18;100.00;67994.34;10367804;27;20053;-71
2024/02/29 17:20:35;;;;;;;12.90;10.60;;;;;;;-146.18;100.00;67994.34;10353599;27;20068;-71
2024/02/29 17:25:32;;;;;;;16.60;10.60;;;;;;;-146.18;100.00;67994.34;10356991;27;20047;-71
2024/02/29 17:30:28;;;;;;;13.40;10.07;;;;;;;-146.18;100.00;67994.34;10356271;27;20125;-72
2024/02/29 17:35:28;;;;;;;12.00;9.55;;;;;;;-146.18;100.00;67994.34;10348983;28;20045;-74
2024/02/29 17:40:25;;;;;;;12.02;10.10;;;;;;;-146.18;100.00;67994.34;10346100;27;20044;-74
2024/02/29 17:45:22;;;;;;;12.95;10.18;;;;;;;-146.18;100.00;67994.34;10349964;27;20048;-71
2024/02/29 17:50:20;;;;;;;12.75;10.40;;;;;;;-146.18;100.00;67994.34;10352871;27;20458;-71
2024/02/29 17:55:17;;;;;;;11.57;10.38;;;;;;;-146.18;100.00;67994.34;10341693;27;20470;-70
2024/02/29 18:00:15;;;;;;;13.43;9.73;;;;;;;-146.18;100.00;67994.34;10351961;28;20053;-73
2024/02/29 18:05:11;;;;;;;12.75;10.63;;;;;;;-146.18;100.00;67994.34;10355324;27;20105;-73
2024/02/29 18:10:08;;;;;;;14.25;11.38;;;;;;;-146.18;100.00;67994.34;10355296;27;20116;-73
2024/02/29 18:15:08;;;;;;;16.05;11.68;;;;;;;-146.18;100.00;67994.34;10353405;27;20083;-74
2024/02/29 18:20:05;;;;;;;21.45;12.63;;;;;;;-146.18;100.00;67994.34;10343725;27;20078;-73
2024/02/29 18:25:03;;;;;;;16.00;12.25;;;;;;;-146.18;100.00;67994.34;10345951;27;20063;-72
2024/02/29 18:30:00;;;;;;;15.52;11.75;;;;;;;-146.18;100.00;67994.34;10338335;28;20082;-72
2024/02/29 18:34:56;;;;;;;16.45;11.35;;;;;;;-146.18;100.00;67994.34;10342972;27;20056;-71
2024/02/29 18:39:53;;;;;;;15.35;11.68;;;;;;;-146.18;100.00;67994.34;10344069;28;20040;-72
2024/02/29 18:44:49;;;;;;;16.88;12.95;;;;;;;-146.18;100.00;67994.34;10348841;27;20051;-72
2024/02/29 18:49:46;;;;;;;17.48;13.07;;;;;;;-146.18;100.00;67994.34;10341622;27;20393;-72
2024/02/29 18:54:44;;;;;;;16.65;12.80;;;;;;;-146.18;100.00;67994.34;10352940;27;20047;-72
2024/02/29 18:59:41;;;;;;;16.70;13.30;;;;;;;-146.18;100.00;67994.34;10346791;27;20044;-71
2024/02/29 19:04:38;;;;;;;19.90;14.63;;;;;;;-146.18;100.00;67994.34;10334151;27;20055;-71
2024/02/29 19:09:34;;;;;;;20.83;15.15;;;;;;;-146.18;100.00;67994.34;10350430;27;20039;-71
2024/02/29 19:14:31;;;;;;;22.00;15.00;;;;;;;-146.18;100.00;67994.34;10351532;27;20040;-71
2024/02/29 19:19:28;;;;;;;22.75;15.90;;;;;;;-146.18;100.00;67994.34;10342981;28;20047;-71
2024/02/29 19:24:25;;;;;;;19.65;15.07;;;;;;;-146.18;100.00;67994.34;10349267;27;20101;-71
2024/02/29 19:29:22;;;;;;;23.10;16.10;;;;;;;-146.18;100.00;67994.34;10343053;27;20064;-71
2024/02/29 19:34:20;;;;;;;24.35;16.67;;;;;;;-146.18;100.00;67994.34;10348506;27;20055;-71
2024/02/29 19:39:16;;;;;;;22.67;16.92;;;;;;;-146.18;100.00;67994.34;10340726;28;20060;-71
2024/02/29 19:44:13;;;;;;;23.00;16.85;;;;;;;-146.18;100.00;67994.34;10348094;27;20046;-71
2024/02/29 19:49:10;;;;;;;23.73;17.20;;;;;;;-146.18;100.00;67994.34;10345189;28;20080;-70
2024/02/29 19:54:06;;;;;;;25.80;16.90;;;;;;;-146.18;100.00;67994.34;10344902;27;20584;-71
2024/02/29 19:59:03;;;;;;;26.15;18.27;;;;;;;-146.18;100.00;67994.34;10354668;28;20043;-71
2024/02/29 20:03:59;;;;;;;25.75;18.75;;;;;;;-146.18;100.00;67994.34;10354882;27;20556;-71
2024/02/29 20:08:56;;;;;;;26.30;18.73;;;;;;;-146.18;100.00;67994.34;10367416;27;20047;-72
2024/02/29 20:13:54;;;;;;;28.10;19.65;;;;;;;-146.18;100.00;67994.34;10348453;28;20048;-71
2024/02/29 20:18:50;;;;;;;22.02;17.60;;;;;;;-146.18;100.00;67994.34;10341139;28;20039;-71
2024/02/29 20:23:47;;;;;;;23.85;18.40;;;;;;;-146.18;100.00;67994.34;10356257;27;20044;-70
2024/02/29 20:28:43;;;;;;;27.02;18.95;;;;;;;-146.18;100.00;67994.34;10347263;28;20044;-73
2024/02/29 20:33:40;;;;;;;25.67;18.17;;;;;;;-146.18;100.00;67994.34;10352317;27;20307;-71
2024/02/29 20:38:37;;;;;;;26.65;18.92;;;;;;;-146.18;100.00;67994.34;10361159;27;20071;-71
2024/02/29 20:43:34;;;;;;;26.73;20.05;;;;;;;-146.18;100.00;67994.34;10353891;27;20446;-71
2024/02/29 20:48:31;;;;;;;26.10;18.92;;;;;;;-146.18;100.00;67994.34;10356040;27;20055;-71
2024/02/29 20:53:28;;;;;;;29.23;19.83;;;;;;;-146.18;100.00;67994.34;10340924;27;20040;-71
2024/02/29 20:58:25;;;;;;;26.52;19.45;;;;;;;-146.18;100.00;67994.34;10350127;28;20094;-71
2024/02/29 21:03:21;;;;;;;27.50;19.55;;;;;;;-146.18;100.00;67994.34;10344315;28;20044;-71
2024/02/29 21:08:18;;;;;;;29.10;19.52;;;;;;;-146.18;100.00;67994.34;10332384;28;20101;-71
2024/02/29 21:13:15;;;;;;;28.33;21.33;;;;;;;-146.18;100.00;67994.34;10350184;27;20380;-70
2024/02/29 21:18:12;;;;;;;27.33;19.80;;;;;;;-146.18;100.00;67994.34;10352972;27;20531;-69
2024/02/29 21:23:08;;;;;;;29.30;21.10;;;;;;;-146.18;100.00;67994.34;10352102;27;20040;-69
2024/02/29 21:28:05;;;;;;;25.63;20.00;;;;;;;-146.18;100.00;67994.34;10349550;27;20499;-69
2024/02/29 21:33:02;;;;;;;31.25;21.13;;;;;;;-146.18;100.00;67994.34;10343829;27;20127;-69
2024/02/29 21:37:59;;;;;;;27.65;20.33;;;;;;;-146.18;100.00;67994.34;10351639;27;20108;-69
2024/02/29 21:42:56;;;;;;;34.65;22.50;;;;;;;-146.18;100.00;67994.34;10337514;28;20041;-69
2024/02/29 21:47:53;;;;;;;31.65;21.67;;;;;;;-146.18;100.00;67994.34;10353442;27;20406;-69
2024/02/29 21:52:49;;;;;;;32.30;20.45;;;;;;;-146.18;100.00;67994.34;10349701;27;20079;-70